createdAt,value
2019-05-18T00:00:37.458Z,11.90
2019-05-18T00:01:37.446Z,11.88
2019-05-18T00:02:37.456Z,11.88
2019-05-18T00:03:37.448Z,11.88
2019-05-18T00:04:37.468Z,11.86
2019-05-18T00:05:37.458Z,11.85
2019-05-18T00:06:37.388Z,11.83
2019-05-18T00:07:37.390Z,11.83
2019-05-18T00:08:37.367Z,11.83
2019-05-18T00:09:37.380Z,11.86
2019-05-18T00:10:37.371Z,11.82
2019-05-18T00:11:37.380Z,11.82
2019-05-18T00:12:37.336Z,11.83
2019-05-18T00:13:37.327Z,11.90
2019-05-18T00:14:37.314Z,11.90
2019-05-18T00:15:37.303Z,11.88
2019-05-18T00:16:37.306Z,11.86
2019-05-18T00:17:37.340Z,11.83
2019-05-18T00:18:37.277Z,11.85
2019-05-18T00:19:37.292Z,11.85
2019-05-18T00:20:37.235Z,11.82
2019-05-18T00:21:37.232Z,11.82
2019-05-18T00:22:37.239Z,11.80
2019-05-18T00:23:48.487Z,11.83
2019-05-18T00:24:37.209Z,11.85
2019-05-18T00:25:37.186Z,11.83
2019-05-18T00:26:37.212Z,11.83
2019-05-18T00:27:37.178Z,11.85
2019-05-18T00:28:37.183Z,11.88
2019-05-18T00:29:37.160Z,11.90
2019-05-18T00:30:37.138Z,11.90
2019-05-18T00:31:37.178Z,11.91
2019-05-18T00:32:37.274Z,11.91
2019-05-18T00:33:37.152Z,11.85
2019-05-18T00:34:37.111Z,11.80
2019-05-18T00:35:37.096Z,11.78
2019-05-18T00:36:37.087Z,11.73
2019-05-18T00:37:37.084Z,11.69
2019-05-18T00:38:37.087Z,11.64
2019-05-18T00:39:37.056Z,11.61
2019-05-18T00:40:37.025Z,11.61
2019-05-18T00:41:37.024Z,11.57
2019-05-18T00:42:37.034Z,11.52
2019-05-18T00:43:37.045Z,11.44
2019-05-18T00:44:37.026Z,11.42
2019-05-18T00:45:37.013Z,11.40
2019-05-18T00:46:36.975Z,11.39
2019-05-18T00:47:41.456Z,11.37
2019-05-18T00:48:37.977Z,11.37
2019-05-18T00:49:36.960Z,11.33
2019-05-18T00:50:36.926Z,11.35
2019-05-18T00:51:36.928Z,11.28
2019-05-18T00:52:36.944Z,11.25
2019-05-18T00:53:36.891Z,11.25
2019-05-18T00:54:48.296Z,11.24
2019-05-18T00:55:36.868Z,11.27
2019-05-18T00:56:36.872Z,11.25
2019-05-18T00:57:36.859Z,11.28
2019-05-18T00:58:36.836Z,11.29
2019-05-18T00:59:36.841Z,11.28
2019-05-18T01:00:36.833Z,11.29
2019-05-18T01:01:36.827Z,11.33
2019-05-18T01:02:36.814Z,11.29
2019-05-18T01:03:36.790Z,11.29
2019-05-18T01:04:36.787Z,11.28
2019-05-18T01:05:38.168Z,11.33
2019-05-18T01:06:36.777Z,11.35
2019-05-18T01:07:36.767Z,11.35
2019-05-18T01:08:36.761Z,11.37
2019-05-18T01:09:36.757Z,11.40
2019-05-18T01:10:36.740Z,11.42
2019-05-18T01:11:36.725Z,11.43
2019-05-18T01:12:36.717Z,11.42
2019-05-18T01:13:36.710Z,11.37
2019-05-18T01:14:36.707Z,11.40
2019-05-18T01:15:36.740Z,11.39
2019-05-18T01:16:36.706Z,11.42
2019-05-18T01:17:36.653Z,11.46
2019-05-18T01:18:36.656Z,11.49
2019-05-18T01:19:36.650Z,11.51
2019-05-18T01:20:36.626Z,11.55
2019-05-18T01:21:36.627Z,11.54
2019-05-18T01:22:36.626Z,11.54
2019-05-18T01:23:36.588Z,11.55
2019-05-18T01:24:36.583Z,11.54
2019-05-18T01:25:46.594Z,11.54
2019-05-18T01:26:36.553Z,11.57
2019-05-18T01:27:36.602Z,11.60
2019-05-18T01:28:36.532Z,11.64
2019-05-18T01:29:36.512Z,11.65
2019-05-18T01:30:36.548Z,11.62
2019-05-18T01:31:36.491Z,11.60
2019-05-18T01:32:36.515Z,11.58
2019-05-18T01:33:36.478Z,11.55
2019-05-18T01:34:36.497Z,11.52
2019-05-18T01:35:36.474Z,11.51
2019-05-18T01:36:36.464Z,11.46
2019-05-18T01:37:36.444Z,11.47
2019-05-18T01:38:36.429Z,11.46
2019-05-18T01:39:36.475Z,11.47
2019-05-18T01:40:36.421Z,11.44
2019-05-18T01:41:36.410Z,11.52
2019-05-18T01:42:36.426Z,11.60
2019-05-18T01:43:36.370Z,11.62
2019-05-18T01:44:36.435Z,11.61
2019-05-18T01:45:36.363Z,11.67
2019-05-18T01:46:36.370Z,11.70
2019-05-18T01:47:36.355Z,11.69
2019-05-18T01:48:36.323Z,11.72
2019-05-18T01:49:36.301Z,11.72
2019-05-18T01:50:36.348Z,11.73
2019-05-18T01:51:36.328Z,11.76
2019-05-18T01:52:36.288Z,11.78
2019-05-18T01:53:36.313Z,11.75
2019-05-18T01:54:36.248Z,11.79
2019-05-18T01:55:36.277Z,11.85
2019-05-18T01:56:46.977Z,11.79
2019-05-18T01:57:36.228Z,11.82
2019-05-18T01:58:36.275Z,11.82
2019-05-18T01:59:36.208Z,11.80
2019-05-18T02:00:36.201Z,11.79
2019-05-18T02:01:36.210Z,11.79
2019-05-18T02:02:36.184Z,11.79
2019-05-18T02:03:36.170Z,11.79
2019-05-18T02:04:36.156Z,11.79
2019-05-18T02:05:36.154Z,11.79
2019-05-18T02:06:36.144Z,11.82
2019-05-18T02:07:36.133Z,11.80
2019-05-18T02:08:36.139Z,11.80
2019-05-18T02:09:36.102Z,11.80
2019-05-18T02:10:36.105Z,11.78
2019-05-18T02:11:36.086Z,11.76
2019-05-18T02:12:36.055Z,11.76
2019-05-18T02:13:36.064Z,11.75
2019-05-18T02:14:36.046Z,11.79
2019-05-18T02:15:36.056Z,11.80
2019-05-18T02:16:36.035Z,11.90
2019-05-18T02:17:36.026Z,11.98
2019-05-18T02:18:36.010Z,11.99
2019-05-18T02:19:36.008Z,12.02
2019-05-18T02:20:35.993Z,12.04
2019-05-18T02:21:35.964Z,12.05
2019-05-18T02:22:35.973Z,11.99
2019-05-18T02:23:35.955Z,11.95
2019-05-18T02:24:35.943Z,11.98
2019-05-18T02:25:35.955Z,12.01
2019-05-18T02:26:35.934Z,12.02
2019-05-18T02:27:46.060Z,12.01
2019-05-18T02:28:35.903Z,12.01
2019-05-18T02:29:35.895Z,11.99
2019-05-18T02:30:35.870Z,11.95
2019-05-18T02:31:35.868Z,11.95
2019-05-18T02:32:35.872Z,11.95
2019-05-18T02:33:35.872Z,11.99
2019-05-18T02:34:35.856Z,11.98
2019-05-18T02:35:35.835Z,11.98
2019-05-18T02:36:35.842Z,11.96
2019-05-18T02:37:35.801Z,11.95
2019-05-18T02:38:35.793Z,11.95
2019-05-18T02:39:35.840Z,11.96
2019-05-18T02:40:35.793Z,11.95
2019-05-18T02:41:35.782Z,11.94
2019-05-18T02:42:35.754Z,11.96
2019-05-18T02:43:35.751Z,11.95
2019-05-18T02:44:35.736Z,11.98
2019-05-18T02:45:35.743Z,11.96
2019-05-18T02:46:35.720Z,11.95
2019-05-18T02:47:35.713Z,11.90
2019-05-18T02:48:48.576Z,11.88
2019-05-18T02:49:36.711Z,11.91
2019-05-18T02:50:35.659Z,11.94
2019-05-18T02:51:35.671Z,11.96
2019-05-18T02:52:35.666Z,11.95
2019-05-18T02:53:35.644Z,11.95
2019-05-18T02:54:35.658Z,11.96
2019-05-18T02:55:35.681Z,12.02
2019-05-18T02:56:35.627Z,12.04
2019-05-18T02:57:35.629Z,12.05
2019-05-18T02:58:46.375Z,12.09
2019-05-18T02:59:35.585Z,12.07
2019-05-18T03:00:35.573Z,12.04
2019-05-18T03:01:35.577Z,12.02
2019-05-18T03:02:35.552Z,12.02
2019-05-18T03:03:35.547Z,12.05
2019-05-18T03:04:35.539Z,12.07
2019-05-18T03:05:35.558Z,12.09
2019-05-18T03:06:35.514Z,12.12
2019-05-18T03:07:35.503Z,12.14
2019-05-18T03:08:35.505Z,12.19
2019-05-18T03:09:35.475Z,12.23
2019-05-18T03:10:35.464Z,12.24
2019-05-18T03:11:35.464Z,12.27
2019-05-18T03:12:35.443Z,12.29
2019-05-18T03:13:35.433Z,12.29
2019-05-18T03:14:35.414Z,12.29
2019-05-18T03:15:35.403Z,12.29
2019-05-18T03:16:35.447Z,12.31
2019-05-18T03:17:35.433Z,12.29
2019-05-18T03:18:35.401Z,12.31
2019-05-18T03:19:35.387Z,12.34
2019-05-18T03:20:35.362Z,12.34
2019-05-18T03:21:35.370Z,12.42
2019-05-18T03:22:35.342Z,12.46
2019-05-18T03:23:35.352Z,12.47
2019-05-18T03:24:35.302Z,12.49
2019-05-18T03:25:35.303Z,12.52
2019-05-18T03:26:35.284Z,12.52
2019-05-18T03:27:35.305Z,12.52
2019-05-18T03:28:35.282Z,12.50
2019-05-18T03:29:47.431Z,12.52
2019-05-18T03:30:35.249Z,12.53
2019-05-18T03:31:35.253Z,12.57
2019-05-18T03:32:35.251Z,12.62
2019-05-18T03:33:35.222Z,12.70
2019-05-18T03:34:35.201Z,12.71
2019-05-18T03:35:35.227Z,12.72
2019-05-18T03:36:35.205Z,12.71
2019-05-18T03:37:35.194Z,12.71
2019-05-18T03:38:35.194Z,12.72
2019-05-18T03:39:35.173Z,12.70
2019-05-18T03:40:35.150Z,12.70
2019-05-18T03:41:35.161Z,12.68
2019-05-18T03:42:35.129Z,12.71
2019-05-18T03:43:35.172Z,12.77
2019-05-18T03:44:35.096Z,12.85
2019-05-18T03:45:35.100Z,12.87
2019-05-18T03:46:35.095Z,12.90
2019-05-18T03:47:35.138Z,12.86
2019-05-18T03:48:35.079Z,12.87
2019-05-18T03:49:35.047Z,12.92
2019-05-18T03:50:35.098Z,12.97
2019-05-18T03:51:35.058Z,12.96
2019-05-18T03:52:35.057Z,12.96
2019-05-18T03:53:35.009Z,12.95
2019-05-18T03:54:35.013Z,12.96
2019-05-18T03:55:34.999Z,13.03
2019-05-18T03:56:35.019Z,13.07
2019-05-18T03:57:34.967Z,13.11
2019-05-18T03:58:34.994Z,13.11
2019-05-18T03:59:34.946Z,13.11
2019-05-18T04:00:45.588Z,13.15
2019-05-18T04:01:34.919Z,13.23
2019-05-18T04:02:34.908Z,13.28
2019-05-18T04:03:34.902Z,13.30
2019-05-18T04:04:34.902Z,13.30
2019-05-18T04:05:34.884Z,13.30
2019-05-18T04:06:34.893Z,13.30
2019-05-18T04:07:34.885Z,13.33
2019-05-18T04:08:34.853Z,13.36
2019-05-18T04:09:34.838Z,13.36
2019-05-18T04:10:34.852Z,13.38
2019-05-18T04:11:34.839Z,13.38
2019-05-18T04:12:34.852Z,13.39
2019-05-18T04:13:34.848Z,13.36
2019-05-18T04:14:34.788Z,13.44
2019-05-18T04:15:34.771Z,13.42
2019-05-18T04:16:34.761Z,13.44
2019-05-18T04:17:34.758Z,13.46
2019-05-18T04:18:34.766Z,13.52
2019-05-18T04:19:45.498Z,13.57
2019-05-18T04:20:35.723Z,13.54
2019-05-18T04:21:34.710Z,13.59
2019-05-18T04:22:34.702Z,13.64
2019-05-18T04:23:34.717Z,13.66
2019-05-18T04:24:34.675Z,13.67
2019-05-18T04:25:34.676Z,13.75
2019-05-18T04:26:34.650Z,13.79
2019-05-18T04:27:34.655Z,13.82
2019-05-18T04:28:34.640Z,13.87
2019-05-18T04:29:34.615Z,13.88
2019-05-18T04:30:34.620Z,13.89
2019-05-18T04:31:44.738Z,13.84
2019-05-18T04:32:34.589Z,13.81
2019-05-18T04:33:34.605Z,13.79
2019-05-18T04:34:34.560Z,13.88
2019-05-18T04:35:34.550Z,13.88
2019-05-18T04:36:34.536Z,13.88
2019-05-18T04:37:34.575Z,13.88
2019-05-18T04:38:34.552Z,13.91
2019-05-18T04:39:34.526Z,13.95
2019-05-18T04:40:34.510Z,13.97
2019-05-18T04:41:34.496Z,13.99
2019-05-18T04:42:34.498Z,13.99
2019-05-18T04:43:34.465Z,14.03
2019-05-18T04:44:34.488Z,14.03
2019-05-18T04:45:34.453Z,14.10
2019-05-18T04:46:34.434Z,14.15
2019-05-18T04:47:34.434Z,14.17
2019-05-18T04:48:34.417Z,14.17
2019-05-18T04:49:34.418Z,14.21
2019-05-18T04:50:34.417Z,14.22
2019-05-18T04:51:34.387Z,14.22
2019-05-18T04:52:34.389Z,14.27
2019-05-18T04:53:34.365Z,14.33
2019-05-18T04:54:34.362Z,14.37
2019-05-18T04:55:34.383Z,14.42
2019-05-18T04:56:34.398Z,14.45
2019-05-18T04:57:34.323Z,14.52
2019-05-18T04:58:34.323Z,14.58
2019-05-18T04:59:34.297Z,14.60
2019-05-18T05:00:34.301Z,14.69
2019-05-18T05:01:34.313Z,14.73
2019-05-18T05:02:46.414Z,14.75
2019-05-18T05:03:34.261Z,14.77
2019-05-18T05:04:34.244Z,14.75
2019-05-18T05:05:34.223Z,14.72
2019-05-18T05:06:34.245Z,14.77
2019-05-18T05:07:34.242Z,14.75
2019-05-18T05:08:34.191Z,14.73
2019-05-18T05:09:34.183Z,14.70
2019-05-18T05:10:34.174Z,14.65
2019-05-18T05:11:34.151Z,14.69
2019-05-18T05:12:34.151Z,14.77
2019-05-18T05:13:34.140Z,14.78
2019-05-18T05:14:34.142Z,14.84
2019-05-18T05:15:34.112Z,14.88
2019-05-18T05:16:34.172Z,14.92
2019-05-18T05:17:34.089Z,14.96
2019-05-18T05:18:34.101Z,15.03
2019-05-18T05:19:34.098Z,15.13
2019-05-18T05:20:34.110Z,15.17
2019-05-18T05:21:34.053Z,15.11
2019-05-18T05:22:34.103Z,15.14
2019-05-18T05:23:34.059Z,15.21
2019-05-18T05:24:34.009Z,15.25
2019-05-18T05:25:34.009Z,15.32
2019-05-18T05:26:34.050Z,15.38
2019-05-18T05:27:33.988Z,15.39
2019-05-18T05:28:34.014Z,15.43
2019-05-18T05:29:34.024Z,15.44
2019-05-18T05:30:33.972Z,15.47
2019-05-18T05:31:33.938Z,15.49
2019-05-18T05:32:33.936Z,15.50
2019-05-18T05:33:44.648Z,15.51
2019-05-18T05:34:33.918Z,15.56
2019-05-18T05:35:33.911Z,15.62
2019-05-18T05:36:33.878Z,15.65
2019-05-18T05:37:33.880Z,15.67
2019-05-18T05:38:33.878Z,15.68
2019-05-18T05:39:33.877Z,15.67
2019-05-18T05:40:33.881Z,15.71
2019-05-18T05:41:33.849Z,15.68
2019-05-18T05:42:33.835Z,15.69
2019-05-18T05:43:33.822Z,15.75
2019-05-18T05:44:33.844Z,15.83
2019-05-18T05:45:33.809Z,15.90
2019-05-18T05:46:33.795Z,15.92
2019-05-18T05:47:33.777Z,15.94
2019-05-18T05:48:33.768Z,16.00
2019-05-18T05:49:33.788Z,16.04
2019-05-18T05:50:36.369Z,16.09
2019-05-18T05:51:33.747Z,16.09
2019-05-18T05:52:33.739Z,16.09
2019-05-18T05:53:33.709Z,16.11
2019-05-18T05:54:33.735Z,16.09
2019-05-18T05:55:33.696Z,16.14
2019-05-18T05:56:33.709Z,16.17
2019-05-18T05:57:33.678Z,16.21
2019-05-18T05:58:33.655Z,16.15
2019-05-18T05:59:33.668Z,16.14
2019-05-18T06:00:33.667Z,16.20
2019-05-18T06:01:33.632Z,16.21
2019-05-18T06:02:33.609Z,16.28
2019-05-18T06:03:33.615Z,16.34
2019-05-18T06:04:43.727Z,16.41
2019-05-18T06:05:33.577Z,16.39
2019-05-18T06:06:33.578Z,16.45
2019-05-18T06:07:33.570Z,16.53
2019-05-18T06:08:33.569Z,16.58
2019-05-18T06:09:33.538Z,16.53
2019-05-18T06:10:33.568Z,16.52
2019-05-18T06:11:33.529Z,16.58
2019-05-18T06:12:33.516Z,16.64
2019-05-18T06:13:33.512Z,16.61
2019-05-18T06:14:33.489Z,16.64
2019-05-18T06:15:33.477Z,16.70
2019-05-18T06:16:33.515Z,16.71
2019-05-18T06:17:33.487Z,16.68
2019-05-18T06:18:33.470Z,16.73
2019-05-18T06:19:33.436Z,16.78
2019-05-18T06:20:33.428Z,16.79
2019-05-18T06:21:33.439Z,16.71
2019-05-18T06:22:33.420Z,16.68
2019-05-18T06:23:33.395Z,16.73
2019-05-18T06:24:33.403Z,16.79
2019-05-18T06:25:34.492Z,16.85
2019-05-18T06:26:33.400Z,16.79
2019-05-18T06:27:33.364Z,16.76
2019-05-18T06:28:33.346Z,16.82
2019-05-18T06:29:33.345Z,16.86
2019-05-18T06:30:33.322Z,16.85
2019-05-18T06:31:33.320Z,16.82
2019-05-18T06:32:33.306Z,16.82
2019-05-18T06:33:33.296Z,16.82
2019-05-18T06:34:33.289Z,16.86
2019-05-18T06:35:43.465Z,16.91
2019-05-18T06:36:33.261Z,17.01
2019-05-18T06:37:33.251Z,17.06
2019-05-18T06:38:33.266Z,17.12
2019-05-18T06:39:33.216Z,17.16
2019-05-18T06:40:33.234Z,17.18
2019-05-18T06:41:33.208Z,17.14
2019-05-18T06:42:33.211Z,17.04
2019-05-18T06:43:33.192Z,17.07
2019-05-18T06:44:33.178Z,17.16
2019-05-18T06:45:33.186Z,17.19
2019-05-18T06:46:33.150Z,17.26
2019-05-18T06:47:33.169Z,17.25
2019-05-18T06:48:33.126Z,17.31
2019-05-18T06:49:33.166Z,17.36
2019-05-18T06:50:33.106Z,17.37
2019-05-18T06:51:33.100Z,17.30
2019-05-18T06:52:33.098Z,17.28
2019-05-18T06:53:33.078Z,17.33
2019-05-18T06:54:33.056Z,17.41
2019-05-18T06:55:33.069Z,17.48
2019-05-18T06:56:33.036Z,17.51
2019-05-18T06:57:33.027Z,17.56
2019-05-18T06:58:33.027Z,17.63
2019-05-18T06:59:33.009Z,17.66
2019-05-18T07:00:33.038Z,17.72
2019-05-18T07:01:33.005Z,17.64
2019-05-18T07:02:32.987Z,17.43
2019-05-18T07:03:32.987Z,17.33
2019-05-18T07:04:32.974Z,17.37
2019-05-18T07:05:32.950Z,17.48
2019-05-18T07:06:45.626Z,17.49
2019-05-18T07:07:32.938Z,17.48
2019-05-18T07:08:32.905Z,17.44
2019-05-18T07:09:32.896Z,17.37
2019-05-18T07:10:32.885Z,17.31
2019-05-18T07:11:32.875Z,17.33
2019-05-18T07:12:32.896Z,17.36
2019-05-18T07:13:32.893Z,17.41
2019-05-18T07:14:32.865Z,17.52
2019-05-18T07:15:32.837Z,17.63
2019-05-18T07:16:32.835Z,17.74
2019-05-18T07:17:34.644Z,17.74
2019-05-18T07:18:32.815Z,17.58
2019-05-18T07:19:32.804Z,17.49
2019-05-18T07:20:32.775Z,17.41
2019-05-18T07:21:32.785Z,17.37
2019-05-18T07:22:32.770Z,17.37
2019-05-18T07:23:32.806Z,17.46
2019-05-18T07:24:32.786Z,17.56
2019-05-18T07:25:32.729Z,17.58
2019-05-18T07:26:32.728Z,17.56
2019-05-18T07:27:32.709Z,17.52
2019-05-18T07:28:32.721Z,17.52
2019-05-18T07:29:32.729Z,17.56
2019-05-18T07:30:32.687Z,17.56
2019-05-18T07:31:32.677Z,17.64
2019-05-18T07:32:32.655Z,17.75
2019-05-18T07:33:32.674Z,17.78
2019-05-18T07:34:32.677Z,17.74
2019-05-18T07:35:32.644Z,17.81
2019-05-18T07:36:32.614Z,17.87
2019-05-18T07:37:42.792Z,17.84
2019-05-18T07:38:32.595Z,17.90
2019-05-18T07:39:36.005Z,17.93
2019-05-18T07:40:32.584Z,18.00
2019-05-18T07:41:45.819Z,18.08
2019-05-18T07:42:33.566Z,18.08
2019-05-18T07:43:32.556Z,18.03
2019-05-18T07:44:32.537Z,18.07
2019-05-18T07:45:32.515Z,17.96
2019-05-18T07:46:32.556Z,17.96
2019-05-18T07:47:32.509Z,17.93
2019-05-18T07:48:32.508Z,17.90
2019-05-18T07:49:32.516Z,17.89
2019-05-18T07:50:32.467Z,17.86
2019-05-18T07:51:36.939Z,17.81
2019-05-18T07:52:33.425Z,17.81
2019-05-18T07:53:32.459Z,17.93
2019-05-18T07:54:32.456Z,18.03
2019-05-18T07:55:32.426Z,18.12
2019-05-18T07:56:32.417Z,18.25
2019-05-18T07:57:32.409Z,18.30
2019-05-18T07:58:32.393Z,18.37
2019-05-18T07:59:32.387Z,18.45
2019-05-18T08:00:32.365Z,18.50
2019-05-18T08:01:32.376Z,18.54
2019-05-18T08:02:32.336Z,18.57
2019-05-18T08:03:32.339Z,18.63
2019-05-18T08:04:32.331Z,18.72
2019-05-18T08:05:32.315Z,18.62
2019-05-18T08:06:32.286Z,18.44
2019-05-18T08:07:32.288Z,18.50
2019-05-18T08:08:42.547Z,18.51
2019-05-18T08:09:32.264Z,18.57
2019-05-18T08:10:32.294Z,18.66
2019-05-18T08:11:32.238Z,18.67
2019-05-18T08:12:32.222Z,18.67
2019-05-18T08:13:32.215Z,18.69
2019-05-18T08:14:32.225Z,18.76
2019-05-18T08:15:32.215Z,18.81
2019-05-18T08:16:32.206Z,18.87
2019-05-18T08:17:32.200Z,18.92
2019-05-18T08:18:32.175Z,18.94
2019-05-18T08:19:32.180Z,18.99
2019-05-18T08:20:32.174Z,18.98
2019-05-18T08:21:32.135Z,18.94
2019-05-18T08:22:32.148Z,18.92
2019-05-18T08:23:32.118Z,18.90
2019-05-18T08:24:32.115Z,18.94
2019-05-18T08:25:32.103Z,19.02
2019-05-18T08:26:32.198Z,19.04
2019-05-18T08:27:32.092Z,19.02
2019-05-18T08:28:32.069Z,18.95
2019-05-18T08:29:32.067Z,18.87
2019-05-18T08:30:32.043Z,18.90
2019-05-18T08:31:32.033Z,18.92
2019-05-18T08:32:32.030Z,19.04
2019-05-18T08:33:32.004Z,19.06
2019-05-18T08:34:32.006Z,19.07
2019-05-18T08:35:31.984Z,19.13
2019-05-18T08:36:31.976Z,19.11
2019-05-18T08:37:32.037Z,19.16
2019-05-18T08:38:31.975Z,19.18
2019-05-18T08:39:42.019Z,19.00
2019-05-18T08:40:31.931Z,18.91
2019-05-18T08:41:31.938Z,18.81
2019-05-18T08:42:31.928Z,18.80
2019-05-18T08:43:31.914Z,18.84
2019-05-18T08:44:31.938Z,18.85
2019-05-18T08:45:31.887Z,18.87
2019-05-18T08:46:31.866Z,18.91
2019-05-18T08:47:31.868Z,19.04
2019-05-18T08:48:31.873Z,19.13
2019-05-18T08:49:31.839Z,19.11
2019-05-18T08:50:31.869Z,19.16
2019-05-18T08:51:31.827Z,19.11
2019-05-18T08:52:31.806Z,19.25
2019-05-18T08:53:31.802Z,19.36
2019-05-18T08:54:31.857Z,19.28
2019-05-18T08:55:31.777Z,19.29
2019-05-18T08:56:31.767Z,19.26
2019-05-18T08:57:31.749Z,19.21
2019-05-18T08:58:31.769Z,19.33
2019-05-18T08:59:31.747Z,19.44
2019-05-18T09:00:31.787Z,19.31
2019-05-18T09:01:31.725Z,19.40
2019-05-18T09:02:31.705Z,19.54
2019-05-18T09:03:31.685Z,19.48
2019-05-18T09:04:31.685Z,19.48
2019-05-18T09:05:31.767Z,19.59
2019-05-18T09:06:31.677Z,19.65
2019-05-18T09:07:31.647Z,19.76
2019-05-18T09:08:31.636Z,19.84
2019-05-18T09:09:31.676Z,19.88
2019-05-18T09:10:41.879Z,19.83
2019-05-18T09:11:31.614Z,19.77
2019-05-18T09:12:31.613Z,19.77
2019-05-18T09:13:31.601Z,19.84
2019-05-18T09:14:31.572Z,19.94
2019-05-18T09:15:31.571Z,19.95
2019-05-18T09:16:31.571Z,20.01
2019-05-18T09:17:31.550Z,20.03
2019-05-18T09:18:31.551Z,20.03
2019-05-18T09:19:31.541Z,20.06
2019-05-18T09:20:31.567Z,20.05
2019-05-18T09:21:31.513Z,19.98
2019-05-18T09:22:31.542Z,19.87
2019-05-18T09:23:31.551Z,19.80
2019-05-18T09:24:31.484Z,19.78
2019-05-18T09:25:31.462Z,19.84
2019-05-18T09:26:31.466Z,19.96
2019-05-18T09:27:31.440Z,19.94
2019-05-18T09:28:31.444Z,19.87
2019-05-18T09:29:31.423Z,19.88
2019-05-18T09:30:31.414Z,19.95
2019-05-18T09:31:31.411Z,19.78
2019-05-18T09:32:31.422Z,19.61
2019-05-18T09:33:31.409Z,19.50
2019-05-18T09:34:31.392Z,19.51
2019-05-18T09:35:31.359Z,19.41
2019-05-18T09:36:31.341Z,19.36
2019-05-18T09:37:31.331Z,19.43
2019-05-18T09:38:33.309Z,19.58
2019-05-18T09:39:31.337Z,19.76
2019-05-18T09:40:31.320Z,19.88
2019-05-18T09:41:41.259Z,19.96
2019-05-18T09:42:31.290Z,19.99
2019-05-18T09:43:31.266Z,19.99
2019-05-18T09:44:31.280Z,19.83
2019-05-18T09:45:31.244Z,19.91
2019-05-18T09:46:31.248Z,20.02
2019-05-18T09:47:31.232Z,20.14
2019-05-18T09:48:31.227Z,20.14
2019-05-18T09:49:31.233Z,20.11
2019-05-18T09:50:31.217Z,20.16
2019-05-18T09:51:31.204Z,20.23
2019-05-18T09:52:44.070Z,20.21
2019-05-18T09:54:31.225Z,20.29
2019-05-18T09:55:31.149Z,20.20
2019-05-18T09:56:31.157Z,20.21
2019-05-18T09:57:31.131Z,20.31
2019-05-18T09:58:31.119Z,20.36
2019-05-18T09:59:31.107Z,20.26
2019-05-18T10:00:38.264Z,20.32
2019-05-18T10:02:31.067Z,20.32
2019-05-18T10:03:31.066Z,20.33
2019-05-18T10:04:31.083Z,20.26
2019-05-18T10:05:31.078Z,20.26
2019-05-18T10:06:31.545Z,20.11
2019-05-18T10:07:31.017Z,20.08
2019-05-18T10:08:31.015Z,19.92
2019-05-18T10:09:38.887Z,19.95
2019-05-18T10:11:38.239Z,20.20
2019-05-18T10:13:43.716Z,20.36
2019-05-18T10:14:43.697Z,20.41
2019-05-18T10:15:43.689Z,20.39
2019-05-18T10:16:43.718Z,20.41
2019-05-18T10:18:43.656Z,20.59
2019-05-18T10:19:43.635Z,20.64
2019-05-18T10:20:43.636Z,20.64
2019-05-18T10:21:43.630Z,20.51
2019-05-18T10:22:55.077Z,20.50
2019-05-18T10:23:44.617Z,20.54
2019-05-18T10:24:43.586Z,20.51
2019-05-18T10:25:43.566Z,20.50
2019-05-18T10:26:43.577Z,20.48
2019-05-18T10:27:43.640Z,20.52
2019-05-18T10:28:43.567Z,20.58
2019-05-18T10:29:46.515Z,20.64
2019-05-18T10:30:43.589Z,20.69
2019-05-18T10:31:43.535Z,20.62
2019-05-18T10:32:43.511Z,20.62
2019-05-18T10:33:43.538Z,20.59
2019-05-18T10:34:43.512Z,20.50
2019-05-18T10:35:43.987Z,20.39
2019-05-18T10:36:43.468Z,20.54
2019-05-18T10:37:43.451Z,20.61
2019-05-18T10:38:43.437Z,20.51
2019-05-18T10:39:43.449Z,20.61
2019-05-18T10:40:43.419Z,20.61
2019-05-18T10:41:43.405Z,20.70
2019-05-18T10:42:43.426Z,20.79
2019-05-18T10:43:50.574Z,20.87
2019-05-18T10:44:43.375Z,20.97
2019-05-18T10:45:45.102Z,21.07
2019-05-18T10:46:43.354Z,20.94
2019-05-18T10:47:43.365Z,20.98
2019-05-18T10:48:43.345Z,21.06
2019-05-18T10:49:43.366Z,21.12
2019-05-18T10:50:43.310Z,21.12
2019-05-18T10:52:43.291Z,21.21
2019-05-18T10:53:43.336Z,20.99
2019-05-18T10:54:43.283Z,20.89
2019-05-18T10:55:43.265Z,20.87
2019-05-18T10:56:43.251Z,20.91
2019-05-18T10:57:43.248Z,20.89
2019-05-18T10:58:43.223Z,20.95
2019-05-18T10:59:43.222Z,21.06
2019-05-18T11:00:43.225Z,21.16
2019-05-18T11:01:44.028Z,21.19
2019-05-18T11:02:43.205Z,21.13
2019-05-18T11:04:43.164Z,21.34
2019-05-18T11:05:43.150Z,21.19
2019-05-18T11:06:43.154Z,21.01
2019-05-18T11:08:43.108Z,21.12
2019-05-18T11:09:43.103Z,21.28
2019-05-18T11:10:43.105Z,21.34
2019-05-18T11:11:43.132Z,21.44
2019-05-18T11:12:43.083Z,21.56
2019-05-18T11:13:43.069Z,21.69
2019-05-18T11:14:55.426Z,21.71
2019-05-18T11:15:43.065Z,21.75
2019-05-18T11:16:43.033Z,21.74
2019-05-18T11:17:43.042Z,21.54
2019-05-18T11:18:43.074Z,21.44
2019-05-18T11:19:42.995Z,21.52
2019-05-18T11:20:42.991Z,21.61
2019-05-18T11:21:42.993Z,21.68
2019-05-18T11:22:42.991Z,21.64
2019-05-18T11:23:46.021Z,21.46
2019-05-18T11:24:42.943Z,21.24
2019-05-18T11:25:42.962Z,21.31
2019-05-18T11:26:42.933Z,21.42
2019-05-18T11:27:42.933Z,21.52
2019-05-18T11:28:42.943Z,21.65
2019-05-18T11:29:42.932Z,21.74
2019-05-18T11:30:42.884Z,21.88
2019-05-18T11:31:42.875Z,21.86
2019-05-18T11:32:42.873Z,21.86
2019-05-18T11:33:42.881Z,21.88
2019-05-18T11:35:42.860Z,21.75
2019-05-18T11:36:42.813Z,21.79
2019-05-18T11:37:42.843Z,21.61
2019-05-18T11:39:42.836Z,21.58
2019-05-18T11:40:42.791Z,21.68
2019-05-18T11:41:43.583Z,21.83
2019-05-18T11:42:42.755Z,21.79
2019-05-18T11:43:42.766Z,21.82
2019-05-18T11:44:42.742Z,21.83
2019-05-18T11:46:42.717Z,21.88
2019-05-18T11:47:42.716Z,21.84
2019-05-18T11:48:42.750Z,21.90
2019-05-18T11:49:42.688Z,22.02
2019-05-18T11:50:42.674Z,22.20
2019-05-18T11:51:42.661Z,22.40
2019-05-18T11:52:42.659Z,22.47
2019-05-18T11:53:42.645Z,22.27
2019-05-18T11:54:42.666Z,22.06
2019-05-18T11:55:42.628Z,21.99
2019-05-18T11:56:42.616Z,22.10
2019-05-18T11:57:42.620Z,22.18
2019-05-18T11:58:42.620Z,22.15
2019-05-18T11:59:42.595Z,21.79
2019-05-18T12:00:42.605Z,21.54
2019-05-18T12:01:42.569Z,21.35
2019-05-18T12:02:42.559Z,21.32
2019-05-18T12:03:42.562Z,21.49
2019-05-18T12:04:43.016Z,21.65
2019-05-18T12:05:42.523Z,21.90
2019-05-18T12:06:42.510Z,22.07
2019-05-18T12:07:42.504Z,22.21
2019-05-18T12:08:42.518Z,22.37
2019-05-18T12:09:42.483Z,22.30
2019-05-18T12:10:42.466Z,22.30
2019-05-18T12:11:42.458Z,22.46
2019-05-18T12:12:42.440Z,22.57
2019-05-18T12:13:42.437Z,22.51
2019-05-18T12:14:42.427Z,22.54
2019-05-18T12:15:42.427Z,22.49
2019-05-18T12:16:53.524Z,22.57
2019-05-18T12:17:42.403Z,22.61
2019-05-18T12:18:42.371Z,22.64
2019-05-18T12:19:42.383Z,22.67
2019-05-18T12:20:42.351Z,22.51
2019-05-18T12:21:42.420Z,22.65
2019-05-18T12:22:42.331Z,22.77
2019-05-18T12:23:42.338Z,22.86
2019-05-18T12:24:42.311Z,22.88
2019-05-18T12:25:42.302Z,22.79
2019-05-18T12:26:42.313Z,22.82
2019-05-18T12:27:42.382Z,22.86
2019-05-18T12:28:42.296Z,22.79
2019-05-18T12:29:42.272Z,22.68
2019-05-18T12:30:42.263Z,22.70
2019-05-18T12:31:42.257Z,22.64
2019-05-18T12:32:42.287Z,22.72
2019-05-18T12:33:42.231Z,22.67
2019-05-18T12:34:44.960Z,22.46
2019-05-18T12:35:42.214Z,22.28
2019-05-18T12:36:42.209Z,22.24
2019-05-18T12:37:42.185Z,22.05
2019-05-18T12:38:42.171Z,22.06
2019-05-18T12:39:42.152Z,22.21
2019-05-18T12:40:42.154Z,22.40
2019-05-18T12:41:42.157Z,22.47
2019-05-18T12:42:42.153Z,22.36
2019-05-18T12:43:42.158Z,22.37
2019-05-18T12:44:42.118Z,22.51
2019-05-18T12:45:42.120Z,22.49
2019-05-18T12:46:42.190Z,22.57
2019-05-18T12:48:42.065Z,22.68
2019-05-18T12:49:42.080Z,22.82
2019-05-18T12:50:42.059Z,22.95
2019-05-18T12:51:42.036Z,23.01
2019-05-18T12:52:42.040Z,23.07
2019-05-18T12:53:42.039Z,23.15
2019-05-18T12:54:46.511Z,22.98
2019-05-18T12:56:41.978Z,22.83
2019-05-18T12:57:41.988Z,22.88
2019-05-18T12:58:41.977Z,22.86
2019-05-18T12:59:42.008Z,22.82
2019-05-18T13:00:41.964Z,22.79
2019-05-18T13:01:41.977Z,22.75
2019-05-18T13:02:41.920Z,22.77
2019-05-18T13:03:41.937Z,22.83
2019-05-18T13:04:42.172Z,22.88
2019-05-18T13:05:41.942Z,22.90